createdAt,value
2016-10-20T00:00:15.173Z,60.97
2016-10-20T00:01:15.178Z,60.49
2016-10-20T00:02:15.195Z,60.87
2016-10-20T00:03:15.629Z,60.97
2016-10-20T00:04:15.237Z,60.58
2016-10-20T00:05:15.574Z,60.97
2016-10-20T00:06:15.271Z,60.87
2016-10-20T00:07:15.605Z,60.87
2016-10-20T00:08:15.309Z,60.78
2016-10-20T00:09:15.327Z,60.97
2016-10-20T00:10:15.664Z,60.21
2016-10-20T00:11:15.365Z,59.63
2016-10-20T00:12:15.700Z,60.21
2016-10-20T00:13:15.405Z,60.39
2016-10-20T00:14:15.422Z,60.17
2016-10-20T00:15:15.446Z,60.58
2016-10-20T00:16:15.778Z,59.6
2016-10-20T00:17:15.793Z,59.82
2016-10-20T00:18:15.496Z,60.08
2016-10-20T00:19:15.516Z,59.31
2016-10-20T00:20:15.535Z,59.99
2016-10-20T00:21:15.867Z,60.46
2016-10-20T00:22:15.577Z,59.53
2016-10-20T00:23:15.910Z,60.17
2016-10-20T00:24:15.925Z,60.55
2016-10-20T00:25:15.948Z,59.89
2016-10-20T00:26:15.962Z,59.41
2016-10-20T00:27:15.984Z,59.51
2016-10-20T00:28:15.999Z,59.89
2016-10-20T00:29:15.704Z,59.6
2016-10-20T00:30:16.044Z,60.17
2016-10-20T00:31:16.058Z,59.51
2016-10-20T00:32:16.077Z,60.08
2016-10-20T00:33:16.104Z,60.27
2016-10-20T00:34:16.118Z,59.51
2016-10-20T00:35:16.134Z,60.08
2016-10-20T00:36:15.841Z,60.75
2016-10-20T00:37:15.859Z,60.75
2016-10-20T00:38:16.191Z,59.7
2016-10-20T00:39:15.896Z,59.6
2016-10-20T00:40:15.916Z,60.17
2016-10-20T00:41:15.933Z,60.36
2016-10-20T00:42:15.952Z,60.36
2016-10-20T00:43:16.005Z,60.27
2016-10-20T00:44:15.989Z,60.46
2016-10-20T00:45:16.329Z,59.63
2016-10-20T00:46:16.345Z,60.65
2016-10-20T00:47:16.362Z,60.55
2016-10-20T00:48:16.067Z,59.99
2016-10-20T00:49:16.401Z,60.46
2016-10-20T00:50:16.417Z,60.55
2016-10-20T00:51:16.122Z,59.7
2016-10-20T00:52:16.456Z,59.6
2016-10-20T00:53:16.161Z,60.21
2016-10-20T00:54:16.179Z,60.78
2016-10-20T00:55:16.197Z,60.02
2016-10-20T00:56:16.216Z,59.92
2016-10-20T00:57:16.236Z,60.65
2016-10-20T00:58:16.600Z,60.55
2016-10-20T00:59:16.273Z,60.08
2016-10-20T01:00:16.609Z,60.68
2016-10-20T01:01:16.627Z,59.99
2016-10-20T01:02:16.331Z,60.02
2016-10-20T01:03:16.671Z,60.21
2016-10-20T01:04:16.367Z,60.55
2016-10-20T01:05:16.395Z,60.55
2016-10-20T01:06:16.445Z,60.46
2016-10-20T01:07:16.425Z,61.41
2016-10-20T01:08:16.441Z,61.32
2016-10-20T01:09:16.460Z,60.27
2016-10-20T01:10:16.801Z,59.99
2016-10-20T01:11:16.499Z,59.7
2016-10-20T01:12:16.520Z,60.94
2016-10-20T01:13:16.856Z,60.55
2016-10-20T01:14:16.559Z,60.75
2016-10-20T01:15:16.892Z,60.27
2016-10-20T01:16:16.594Z,60.11
2016-10-20T01:17:16.615Z,60.36
2016-10-20T01:18:16.635Z,61.8
2016-10-20T01:19:17.019Z,61.6
2016-10-20T01:20:16.672Z,61.51
2016-10-20T01:21:16.691Z,61.25
2016-10-20T01:22:16.742Z,60.65
2016-10-20T01:23:16.731Z,60.39
2016-10-20T01:24:16.749Z,60.21
2016-10-20T01:25:17.084Z,59.92
2016-10-20T01:26:16.785Z,60.08
2016-10-20T01:27:16.805Z,60.49
2016-10-20T01:28:17.175Z,59.99
2016-10-20T01:29:16.847Z,60.36
2016-10-20T01:30:17.176Z,60.17
2016-10-20T01:31:17.196Z,60.55
2016-10-20T01:32:17.216Z,60.68
2016-10-20T01:33:16.919Z,60.36
2016-10-20T01:34:17.252Z,60.08
2016-10-20T01:35:16.956Z,60.68
2016-10-20T01:36:16.984Z,60.49
2016-10-20T01:37:16.994Z,60.36
2016-10-20T01:38:17.016Z,60.17
2016-10-20T01:39:17.032Z,60.65
2016-10-20T01:40:17.058Z,60.65
2016-10-20T01:41:17.383Z,60.36
2016-10-20T01:42:17.404Z,59.41
2016-10-20T01:43:17.421Z,59.6
2016-10-20T01:44:17.446Z,59.22
2016-10-20T01:45:17.147Z,59.51
2016-10-20T01:46:17.184Z,60.27
2016-10-20T01:47:17.183Z,60.17
2016-10-20T01:48:17.520Z,59.7
2016-10-20T01:49:17.221Z,59.79
2016-10-20T01:50:17.237Z,60.27
2016-10-20T01:51:17.576Z,59.51
2016-10-20T01:52:17.280Z,59.03
2016-10-20T01:53:17.297Z,59.6
2016-10-20T01:54:17.629Z,59.41
2016-10-20T01:55:17.337Z,60.36
2016-10-20T01:56:17.354Z,60.21
2016-10-20T01:57:17.373Z,60.27
2016-10-20T01:58:17.389Z,59.51
2016-10-20T01:59:17.729Z,59.51
2016-10-20T02:00:17.746Z,59.51
2016-10-20T02:01:17.762Z,60.08
2016-10-20T02:02:17.465Z,60.46
2016-10-20T02:03:17.483Z,59.22
2016-10-20T02:04:17.506Z,59.31
2016-10-20T02:05:17.522Z,59.51
2016-10-20T02:06:17.544Z,60.27
2016-10-20T02:07:17.877Z,59.99
2016-10-20T02:08:17.581Z,60.46
2016-10-20T02:09:17.620Z,60.55
2016-10-20T02:10:17.621Z,60.27
2016-10-20T02:11:17.952Z,61.04
2016-10-20T02:12:17.980Z,60.36
2016-10-20T02:13:17.996Z,60.17
2016-10-20T02:14:18.006Z,60.27
2016-10-20T02:15:17.732Z,59.89
2016-10-20T02:16:18.048Z,59.79
2016-10-20T02:17:17.749Z,59.6
2016-10-20T02:18:18.086Z,59.22
2016-10-20T02:19:17.789Z,59.51
2016-10-20T02:20:17.807Z,59.51
2016-10-20T02:21:18.177Z,60.36
2016-10-20T02:22:17.845Z,59.31
2016-10-20T02:23:17.866Z,59.41
2016-10-20T02:24:18.195Z,60.55
2016-10-20T02:25:17.908Z,60.46
2016-10-20T02:26:17.925Z,60.27
2016-10-20T02:27:17.943Z,59.31
2016-10-20T02:28:17.962Z,60.46
2016-10-20T02:29:17.978Z,60.17
2016-10-20T02:30:18.331Z,59.99
2016-10-20T02:31:18.026Z,59.6
2016-10-20T02:32:18.351Z,59.51
2016-10-20T02:33:18.369Z,60.17
2016-10-20T02:34:18.075Z,60.17
2016-10-20T02:35:18.091Z,59.31
2016-10-20T02:36:18.110Z,60.17
2016-10-20T02:37:18.443Z,58.94
2016-10-20T02:38:18.147Z,59.31
2016-10-20T02:39:18.181Z,60.27
2016-10-20T02:40:18.500Z,59.12
2016-10-20T02:41:18.519Z,59.31
2016-10-20T02:42:18.224Z,59.7
2016-10-20T02:43:18.243Z,59.79
2016-10-20T02:44:18.259Z,59.51
2016-10-20T02:45:18.613Z,59.79
2016-10-20T02:46:18.306Z,59.7
2016-10-20T02:47:18.632Z,59.51
2016-10-20T02:48:18.652Z,59.12
2016-10-20T02:49:18.356Z,59.6
2016-10-20T02:50:18.375Z,59.41
2016-10-20T02:51:18.395Z,59.51
2016-10-20T02:52:18.730Z,59.51
2016-10-20T02:53:18.455Z,58.94
2016-10-20T02:54:18.465Z,59.41
2016-10-20T02:55:18.790Z,59.41
2016-10-20T02:56:18.492Z,58.94
2016-10-20T02:57:18.511Z,59.51
2016-10-20T02:58:18.529Z,59.51
2016-10-20T02:59:18.546Z,58.84
2016-10-20T03:00:18.579Z,59.41
2016-10-20T03:01:18.589Z,60.27
2016-10-20T03:02:18.605Z,59.51
2016-10-20T03:03:18.938Z,60.27
2016-10-20T03:04:18.641Z,59.51
2016-10-20T03:05:18.663Z,59.7
2016-10-20T03:06:18.681Z,59.41
2016-10-20T03:07:19.015Z,59.03
2016-10-20T03:08:18.738Z,59.03
2016-10-20T03:09:19.052Z,59.41
2016-10-20T03:10:18.757Z,59.44
2016-10-20T03:11:19.111Z,59.41
2016-10-20T03:12:19.143Z,59.51
2016-10-20T03:13:18.816Z,59.31
2016-10-20T03:14:18.831Z,59.03
2016-10-20T03:15:19.176Z,59.41
2016-10-20T03:16:19.214Z,59.6
2016-10-20T03:17:18.888Z,59.41
2016-10-20T03:18:19.257Z,59.6
2016-10-20T03:19:19.243Z,59.31
2016-10-20T03:20:18.946Z,58.84
2016-10-20T03:21:18.962Z,59.03
2016-10-20T03:22:18.986Z,59.06
2016-10-20T03:23:19.018Z,59.06
2016-10-20T03:24:19.029Z,58.75
2016-10-20T03:25:19.039Z,59.41
2016-10-20T03:26:19.059Z,59.53
2016-10-20T03:27:19.075Z,59.31
2016-10-20T03:28:19.409Z,59.51
2016-10-20T03:29:19.116Z,59.6
2016-10-20T03:30:19.461Z,59.22
2016-10-20T03:31:19.157Z,59.51
2016-10-20T03:32:19.169Z,59.6
2016-10-20T03:33:19.192Z,60.11
2016-10-20T03:34:19.210Z,59.51
2016-10-20T03:35:19.227Z,59.44
2016-10-20T03:36:19.247Z,60.21
2016-10-20T03:37:19.266Z,60.3
2016-10-20T03:38:19.615Z,59.25
2016-10-20T03:39:19.618Z,58.97
2016-10-20T03:40:19.667Z,58.68
2016-10-20T03:41:19.375Z,58.97
2016-10-20T03:42:19.362Z,59.25
2016-10-20T03:43:19.380Z,58.87
2016-10-20T03:44:19.400Z,58.58
2016-10-20T03:45:19.738Z,59.63
2016-10-20T03:46:19.751Z,59.73
2016-10-20T03:47:19.454Z,59.63
2016-10-20T03:48:19.796Z,58.97
2016-10-20T03:49:19.491Z,59.34
2016-10-20T03:50:19.509Z,59.53
2016-10-20T03:51:19.531Z,58.87
2016-10-20T03:52:19.549Z,58.58
2016-10-20T03:53:19.900Z,59.16
2016-10-20T03:54:19.592Z,58.87
2016-10-20T03:55:19.609Z,58.97
2016-10-20T03:56:19.955Z,59.16
2016-10-20T03:57:19.958Z,59.53
2016-10-20T03:58:19.981Z,58.48
2016-10-20T03:59:19.996Z,58.48
2016-10-20T04:00:20.026Z,58.29
2016-10-20T04:01:19.721Z,58.97
2016-10-20T04:02:19.737Z,58.48
2016-10-20T04:03:20.073Z,58.58
2016-10-20T04:04:20.113Z,59.16
2016-10-20T04:05:19.795Z,58.11
2016-10-20T04:06:20.130Z,58.39
2016-10-20T04:07:20.150Z,57.24
2016-10-20T04:08:20.268Z,57.82
2016-10-20T04:09:20.186Z,58.36
2016-10-20T04:10:20.207Z,59.6
2016-10-20T04:11:19.908Z,60.3
2016-10-20T04:12:19.926Z,58.97
2016-10-20T04:13:19.945Z,59.06
2016-10-20T04:14:20.315Z,59.44
2016-10-20T04:15:20.304Z,59.44
2016-10-20T04:16:20.318Z,58.97
2016-10-20T04:17:20.023Z,58.48
2016-10-20T04:18:20.356Z,58.87
2016-10-20T04:19:20.061Z,59.06
2016-10-20T04:20:20.079Z,57.24
2016-10-20T04:21:20.101Z,58.29
2016-10-20T04:22:20.115Z,58.2
2016-10-20T04:23:20.143Z,58.11
2016-10-20T04:24:20.156Z,58.97
2016-10-20T04:25:20.175Z,59.06
2016-10-20T04:26:20.197Z,58.48
2016-10-20T04:27:20.528Z,59.25
2016-10-20T04:28:20.551Z,59.16
2016-10-20T04:29:20.250Z,59.44
2016-10-20T04:30:20.286Z,58.77
2016-10-20T04:31:20.607Z,58.87
2016-10-20T04:32:20.310Z,57.82
2016-10-20T04:33:20.340Z,58.11
2016-10-20T04:34:20.351Z,58.11
2016-10-20T04:35:20.366Z,58.2
2016-10-20T04:36:20.700Z,57.63
2016-10-20T04:37:20.403Z,57.15
2016-10-20T04:38:20.740Z,57.24
2016-10-20T04:39:20.442Z,57.34
2016-10-20T04:40:20.458Z,57.53
2016-10-20T04:41:20.800Z,57.24
2016-10-20T04:42:20.816Z,57.06
2016-10-20T04:43:20.519Z,57.92
2016-10-20T04:44:20.536Z,57.63
2016-10-20T04:45:20.880Z,56.96
2016-10-20T04:46:20.615Z,57.63
2016-10-20T04:47:20.595Z,57.24
2016-10-20T04:48:20.616Z,56.48
2016-10-20T04:49:20.632Z,55.91
2016-10-20T04:50:20.650Z,56.29
2016-10-20T04:51:20.983Z,57.53
2016-10-20T04:52:21.001Z,57.06
2016-10-20T04:53:21.022Z,55.82
2016-10-20T04:54:21.043Z,56.29
2016-10-20T04:55:20.747Z,57.15
2016-10-20T04:56:20.765Z,56.29
2016-10-20T04:57:21.097Z,56.58
2016-10-20T04:58:20.805Z,56.96
2016-10-20T04:59:20.824Z,57.24
2016-10-20T05:00:21.164Z,57.53
2016-10-20T05:01:21.174Z,56.48
2016-10-20T05:02:21.196Z,55.91
2016-10-20T05:03:20.897Z,56.01
2016-10-20T05:04:21.237Z,56.01
2016-10-20T05:05:21.253Z,55.91
2016-10-20T05:06:21.270Z,56.77
2016-10-20T05:07:20.974Z,56.1
2016-10-20T05:08:21.000Z,57.06
2016-10-20T05:09:21.017Z,56.77
2016-10-20T05:10:21.032Z,56.67
2016-10-20T05:11:21.367Z,56.67
2016-10-20T05:12:21.071Z,55.34
2016-10-20T05:13:21.404Z,56.38
2016-10-20T05:14:21.110Z,56.38
2016-10-20T05:15:21.134Z,55.82
2016-10-20T05:16:21.469Z,55.91
2016-10-20T05:17:21.485Z,57.06
2016-10-20T05:18:21.188Z,56.1
2016-10-20T05:19:21.215Z,55.43
2016-10-20T05:20:21.542Z,56.01
2016-10-20T05:21:21.244Z,55.43
2016-10-20T05:22:21.262Z,57.53
2016-10-20T05:23:21.284Z,57.24
2016-10-20T05:24:21.615Z,56.48
2016-10-20T05:25:21.320Z,56.67
2016-10-20T05:26:21.337Z,56.87
2016-10-20T05:27:21.358Z,57.34
2016-10-20T05:28:21.697Z,57.06
2016-10-20T05:29:21.718Z,57.24
2016-10-20T05:30:21.731Z,56.77
2016-10-20T05:31:21.751Z,56.96
2016-10-20T05:32:21.453Z,56.77
2016-10-20T05:33:21.793Z,56.48
2016-10-20T05:34:21.827Z,57.24
2016-10-20T05:35:21.522Z,56.87
2016-10-20T05:36:21.529Z,56.01
2016-10-20T05:37:21.863Z,56.1
2016-10-20T05:38:21.887Z,56.38
2016-10-20T05:39:21.901Z,56.67
2016-10-20T05:40:21.921Z,56.01
2016-10-20T05:41:21.649Z,56.58
2016-10-20T05:42:21.957Z,56.48
2016-10-20T05:43:21.983Z,56.58
2016-10-20T05:44:21.998Z,56.01
2016-10-20T05:45:22.027Z,56.01
2016-10-20T05:46:22.039Z,56.07
2016-10-20T05:47:22.056Z,56.36
2016-10-20T05:48:22.073Z,56.46
2016-10-20T05:49:22.097Z,56.74
2016-10-20T05:50:22.113Z,57.31
2016-10-20T05:51:21.811Z,56.26
2016-10-20T05:52:21.835Z,56.55
2016-10-20T05:53:22.183Z,57.12
2016-10-20T05:54:21.871Z,58.36
2016-10-20T05:55:21.890Z,57.89
2016-10-20T05:56:21.909Z,58.07
2016-10-20T05:57:22.245Z,58.07
2016-10-20T05:58:22.259Z,58.17
2016-10-20T05:59:21.974Z,57.6
2016-10-20T06:00:21.984Z,58.46
2016-10-20T06:01:22.006Z,57.12
2016-10-20T06:02:22.126Z,57.22
2016-10-20T06:03:22.041Z,57.22
2016-10-20T06:04:22.063Z,57.7
2016-10-20T06:05:22.077Z,58.17
2016-10-20T06:06:22.416Z,58.46
2016-10-20T06:07:22.117Z,58.55
2016-10-20T06:08:22.450Z,58.55
2016-10-20T06:09:22.474Z,58.46
2016-10-20T06:10:22.488Z,58.36
2016-10-20T06:11:22.194Z,58.36
2016-10-20T06:12:22.536Z,58.46
2016-10-20T06:13:22.552Z,58.46
2016-10-20T06:14:22.255Z,58.46
2016-10-20T06:15:22.580Z,57.98
2016-10-20T06:16:22.285Z,58.07
2016-10-20T06:17:22.622Z,58.65
2016-10-20T06:18:22.321Z,58.17
2016-10-20T06:19:22.352Z,59.22
2016-10-20T06:20:22.357Z,59.03
2016-10-20T06:21:22.695Z,59.22
2016-10-20T06:22:22.395Z,59.03
2016-10-20T06:23:22.726Z,59.79
2016-10-20T06:24:22.751Z,58.26
2016-10-20T06:25:22.452Z,58.07
2016-10-20T06:26:22.784Z,58.36
2016-10-20T06:27:22.488Z,58.94
2016-10-20T06:28:22.509Z,60.27
2016-10-20T06:29:22.845Z,59.6
2016-10-20T06:30:22.544Z,59.51
2016-10-20T06:31:22.882Z,58.07
2016-10-20T06:32:22.582Z,59.22
2016-10-20T06:33:22.602Z,58.84
2016-10-20T06:34:22.940Z,59.41
2016-10-20T06:35:22.962Z,59.51
2016-10-20T06:36:22.657Z,59.41
2016-10-20T06:37:22.988Z,59.12
2016-10-20T06:38:23.011Z,59.41
2016-10-20T06:39:23.031Z,59.31
2016-10-20T06:40:22.732Z,59.31
2016-10-20T06:41:22.751Z,58.46
2016-10-20T06:42:22.768Z,58.65
2016-10-20T06:43:22.790Z,58.26
2016-10-20T06:44:22.808Z,58.55
2016-10-20T06:45:23.143Z,58.26
2016-10-20T06:46:22.853Z,58.26
2016-10-20T06:47:23.182Z,58.39
2016-10-20T06:48:22.889Z,58.55
2016-10-20T06:49:22.910Z,58.29
2016-10-20T06:50:22.921Z,57.82
2016-10-20T06:51:23.258Z,58.17
2016-10-20T06:52:23.272Z,58.17
2016-10-20T06:53:22.982Z,58.17
2016-10-20T06:54:22.994Z,57.31
2016-10-20T06:55:23.020Z,57.03
2016-10-20T06:56:23.032Z,57.89
2016-10-20T06:57:23.367Z,57.41
2016-10-20T06:58:23.386Z,57.98
2016-10-20T06:59:23.089Z,58.36
2016-10-20T07:00:23.109Z,58.07
2016-10-20T07:01:23.443Z,58.46
2016-10-20T07:02:23.145Z,58.36
2016-10-20T07:03:23.478Z,57.7
2016-10-20T07:04:23.500Z,58.17
2016-10-20T07:05:23.204Z,58.68
2016-10-20T07:06:23.220Z,58.48
2016-10-20T07:07:23.572Z,58.48
2016-10-20T07:08:23.255Z,58.2
2016-10-20T07:09:23.590Z,58.01
2016-10-20T07:10:23.292Z,58.11
2016-10-20T07:11:23.317Z,58.26
2016-10-20T07:12:23.851Z,57.5
2016-10-20T07:13:23.361Z,57.41
2016-10-20T07:14:23.371Z,58.26
2016-10-20T07:15:23.395Z,57.34
2016-10-20T07:16:23.413Z,58.36
2016-10-20T07:17:23.743Z,57.98
2016-10-20T07:18:23.759Z,57.22
2016-10-20T07:19:23.465Z,56.93
2016-10-20T07:20:23.483Z,57.03
2016-10-20T07:21:23.500Z,57.89
2016-10-20T07:22:23.520Z,57.31
2016-10-20T07:23:23.540Z,57.5
2016-10-20T07:24:23.580Z,57.53
2016-10-20T07:25:23.612Z,58.11
2016-10-20T07:26:23.913Z,57.92
2016-10-20T07:27:23.930Z,57.43
2016-10-20T07:28:23.639Z,57.92
2016-10-20T07:29:23.659Z,58.2
2016-10-20T07:30:23.673Z,58.2
2016-10-20T07:31:24.006Z,58.48
2016-10-20T07:32:23.708Z,57.24
2016-10-20T07:33:24.043Z,57.15
2016-10-20T07:34:24.065Z,57.15
2016-10-20T07:35:23.767Z,57.43
2016-10-20T07:36:24.100Z,57.34
2016-10-20T07:37:23.802Z,57.34
2016-10-20T07:38:24.137Z,57.92
2016-10-20T07:39:24.160Z,57.15
2016-10-20T07:40:24.174Z,57.06
2016-10-20T07:41:24.195Z,57.24
2016-10-20T07:42:23.898Z,57.15
2016-10-20T07:43:24.234Z,57.63
2016-10-20T07:44:24.248Z,57.72
2016-10-20T07:45:23.957Z,58.01
2016-10-20T07:46:24.112Z,57.43
2016-10-20T07:47:24.308Z,57.34
2016-10-20T07:48:24.329Z,57.72
2016-10-20T07:49:24.346Z,57.24
2016-10-20T07:50:24.050Z,56.48
2016-10-20T07:51:24.071Z,57.43
2016-10-20T07:52:24.094Z,57.63
2016-10-20T07:53:24.424Z,57.15
2016-10-20T07:54:24.141Z,57.15
2016-10-20T07:55:24.146Z,56.1
2016-10-20T07:56:24.478Z,57.34
2016-10-20T07:57:24.180Z,57.15
2016-10-20T07:58:24.523Z,57.82
2016-10-20T07:59:24.535Z,57.15
2016-10-20T08:00:24.554Z,56.48
2016-10-20T08:01:24.575Z,56.77
2016-10-20T08:02:24.593Z,56.96
2016-10-20T08:03:24.297Z,56.67
2016-10-20T08:04:24.632Z,56.67
2016-10-20T08:05:24.651Z,58.01
2016-10-20T08:06:24.356Z,56.77
2016-10-20T08:07:24.690Z,56.48
2016-10-20T08:08:24.731Z,56.29
2016-10-20T08:09:24.422Z,56.01
2016-10-20T08:10:24.747Z,57.15
2016-10-20T08:11:24.447Z,55.91
2016-10-20T08:12:24.784Z,56.96
2016-10-20T08:13:24.490Z,56.87
2016-10-20T08:14:24.503Z,56.77
2016-10-20T08:15:24.841Z,55.34
2016-10-20T08:16:24.863Z,55.72
2016-10-20T08:17:24.579Z,55.82
2016-10-20T08:18:24.582Z,56.1
2016-10-20T08:19:24.918Z,56.58
2016-10-20T08:20:24.939Z,56.96
2016-10-20T08:21:24.675Z,55.82
2016-10-20T08:22:24.978Z,56.87
2016-10-20T08:23:25.013Z,55.72
2016-10-20T08:24:24.704Z,56.58
2016-10-20T08:25:24.717Z,57.15
2016-10-20T08:26:25.054Z,56.67
2016-10-20T08:27:24.757Z,56.67
2016-10-20T08:28:24.776Z,55.91
2016-10-20T08:29:24.805Z,55.72
2016-10-20T08:30:25.131Z,56.13
2016-10-20T08:31:24.849Z,55.84
2016-10-20T08:32:25.170Z,55.84
2016-10-20T08:33:24.907Z,55.94
2016-10-20T08:34:24.892Z,55.94
2016-10-20T08:35:24.912Z,55.08
2016-10-20T08:36:24.927Z,54.96
2016-10-20T08:37:24.998Z,54.96
2016-10-20T08:38:24.974Z,55.27
2016-10-20T08:39:24.990Z,55.36
2016-10-20T08:40:25.324Z,55.84
2016-10-20T08:41:25.023Z,55.27
2016-10-20T08:42:25.046Z,55.94
2016-10-20T08:43:25.068Z,56.41
2016-10-20T08:44:25.085Z,55.94
2016-10-20T08:45:25.102Z,55.08
2016-10-20T08:46:25.446Z,55.46
2016-10-20T08:47:25.142Z,55.18
2016-10-20T08:48:25.159Z,55.18
2016-10-20T08:49:25.504Z,55.08
2016-10-20T08:50:25.517Z,55.75
2016-10-20T08:51:25.221Z,55.46
2016-10-20T08:52:25.552Z,55.36
2016-10-20T08:53:25.572Z,55.36
2016-10-20T08:54:25.593Z,54.44
2016-10-20T08:55:25.296Z,54.44
2016-10-20T08:56:25.318Z,54.13
2016-10-20T08:57:25.661Z,53.1
2016-10-20T08:58:25.675Z,54.03
2016-10-20T08:59:25.373Z,55.18
2016-10-20T09:00:25.396Z,54.89
2016-10-20T09:01:25.728Z,55.27
2016-10-20T09:02:25.434Z,54.15
2016-10-20T09:03:25.453Z,54.44
2016-10-20T09:04:25.476Z,53.96
2016-10-20T09:05:25.493Z,53.86
2016-10-20T09:06:25.829Z,54.53
2016-10-20T09:07:25.531Z,52.91
2016-10-20T09:08:25.871Z,53.67
2016-10-20T09:09:25.902Z,54.44
2016-10-20T09:10:25.908Z,53
2016-10-20T09:11:25.609Z,53.1
2016-10-20T09:12:25.634Z,52.34
2016-10-20T09:13:25.966Z,52.65
2016-10-20T09:14:25.672Z,52.46
2016-10-20T09:15:26.007Z,53.51
2016-10-20T09:16:25.718Z,52.87
2016-10-20T09:17:26.053Z,51.81
2016-10-20T09:18:25.763Z,52.29
2016-10-20T09:19:25.819Z,52.1
2016-10-20T09:20:25.797Z,51.17
2016-10-20T09:21:25.811Z,50.31
2016-10-20T09:22:25.830Z,49.35
2016-10-20T09:23:26.171Z,50.6
2016-10-20T09:24:25.878Z,50.6
2016-10-20T09:25:25.918Z,49.64
2016-10-20T09:26:25.918Z,49.45
2016-10-20T09:27:25.942Z,48.68
2016-10-20T09:28:25.960Z,48.88
2016-10-20T09:29:26.296Z,48.23
2016-10-20T09:30:26.316Z,48.61
2016-10-20T09:31:26.379Z,49.38
2016-10-20T09:32:26.361Z,48.04
2016-10-20T09:33:26.064Z,48.04
2016-10-20T09:34:26.087Z,48.13
2016-10-20T09:35:26.439Z,47.39
2016-10-20T09:36:26.445Z,47.2
2016-10-20T09:37:26.148Z,47.97
2016-10-20T09:38:26.168Z,45.67
2016-10-20T09:39:26.192Z,45.67
2016-10-20T09:40:26.216Z,45.67
2016-10-20T09:41:26.236Z,45.67
2016-10-20T09:42:26.256Z,46.15
2016-10-20T09:43:26.279Z,45.09
2016-10-20T09:44:26.614Z,45.29
2016-10-20T09:45:26.671Z,45.38
2016-10-20T09:46:26.344Z,47.2
2016-10-20T09:47:26.681Z,46.44
2016-10-20T09:48:26.386Z,46.34
2016-10-20T09:49:26.412Z,45.86
2016-10-20T09:50:26.747Z,46.82
2016-10-20T09:51:26.770Z,46.34
2016-10-20T09:52:26.793Z,46.15
2016-10-20T09:53:26.531Z,46.03
2016-10-20T09:54:26.530Z,46.98
2016-10-20T09:55:26.543Z,47.37
2016-10-20T09:56:26.880Z,47.27
2016-10-20T09:57:26.900Z,47.94
2016-10-20T09:58:26.936Z,47.3
2016-10-20T09:59:26.639Z,46.31
2016-10-20T10:00:26.646Z,45.74
2016-10-20T10:01:26.669Z,46.12
2016-10-20T10:02:27.008Z,47.18
2016-10-20T10:03:27.029Z,46.31
2016-10-20T10:04:26.734Z,47.27
2016-10-20T10:05:26.754Z,47.27
2016-10-20T10:06:26.777Z,46.7
2016-10-20T10:07:26.796Z,47.56
2016-10-20T10:08:27.134Z,47.08
2016-10-20T10:09:27.155Z,47.44
2016-10-20T10:10:27.180Z,48.59
2016-10-20T10:11:27.200Z,48.11
2016-10-20T10:12:26.902Z,48.11
2016-10-20T10:13:26.952Z,48.78
2016-10-20T10:14:27.261Z,47.34
2016-10-20T10:15:27.281Z,47.25
2016-10-20T10:16:26.990Z,48.11
2016-10-20T10:17:27.344Z,48.3
2016-10-20T10:18:27.343Z,48.3
2016-10-20T10:19:27.364Z,48.3
2016-10-20T10:21:27.091Z,48.11
2016-10-20T10:22:27.429Z,48.39
2016-10-20T10:23:27.137Z,48.68
2016-10-20T10:24:27.470Z,48.21
2016-10-20T10:25:27.497Z,48.88
2016-10-20T10:26:27.512Z,48.11
2016-10-20T10:27:27.220Z,48.49
2016-10-20T10:28:27.238Z,48.02
2016-10-20T10:29:27.578Z,48.68
2016-10-20T10:30:27.282Z,48.88
2016-10-20T10:31:27.305Z,48.97
2016-10-20T10:32:27.327Z,48.39
2016-10-20T10:33:27.345Z,48.11
2016-10-20T10:34:27.682Z,48.59
2016-10-20T10:35:27.699Z,49.16
2016-10-20T10:36:27.723Z,49.26
2016-10-20T10:37:27.428Z,49.16
2016-10-20T10:38:27.447Z,48.11
2016-10-20T10:39:27.783Z,47.25
2016-10-20T10:40:27.492Z,48.59
2016-10-20T10:41:27.508Z,49.16
2016-10-20T10:42:27.533Z,48.21
2016-10-20T10:43:27.551Z,48.68
2016-10-20T10:44:27.887Z,48.88
2016-10-20T10:45:27.910Z,49.74
2016-10-20T10:46:27.931Z,49.07
2016-10-20T10:47:27.634Z,48.11
2016-10-20T10:48:27.664Z,48.21
2016-10-20T10:49:28.031Z,47.16
2016-10-20T10:50:27.698Z,45.15
2016-10-20T10:51:28.055Z,45.81
2016-10-20T10:52:27.740Z,46.48
2016-10-20T10:53:27.761Z,46.58
2016-10-20T10:54:27.783Z,46.01
2016-10-20T10:55:27.803Z,44.95
2016-10-20T10:56:27.826Z,45.43
2016-10-20T10:57:28.158Z,45.62
2016-10-20T10:58:27.864Z,45.62
2016-10-20T10:59:28.212Z,46.1
2016-10-20T11:00:27.906Z,45.43
2016-10-20T11:01:27.928Z,46.67
2016-10-20T11:02:27.948Z,47.34
2016-10-20T11:03:28.299Z,47.37
2016-10-20T11:04:28.306Z,45.45
2016-10-20T11:05:28.327Z,45.17
2016-10-20T11:06:28.033Z,45.43
2016-10-20T11:07:28.369Z,45.72
2016-10-20T11:08:28.076Z,44.88
2016-10-20T11:09:28.410Z,44.4
2016-10-20T11:10:28.116Z,44.09
2016-10-20T11:11:28.453Z,43.9
2016-10-20T11:12:28.474Z,44.09
2016-10-20T11:13:28.179Z,44.57
2016-10-20T11:14:28.198Z,45.24
2016-10-20T11:15:28.220Z,45.62
2016-10-20T11:16:28.556Z,45.07
2016-10-20T11:17:28.587Z,44.4
2016-10-20T11:18:28.618Z,45.07
2016-10-20T11:19:28.620Z,45.17
2016-10-20T11:20:28.331Z,44.79
2016-10-20T11:21:28.345Z,45.74
2016-10-20T11:22:28.369Z,45.84
2016-10-20T11:23:28.709Z,46.7
2016-10-20T11:24:28.725Z,47.66
2016-10-20T11:25:28.746Z,46.03
2016-10-20T11:26:28.468Z,45.07
2016-10-20T11:27:28.475Z,45.65
2016-10-20T11:28:28.497Z,45.74
2016-10-20T11:29:28.515Z,46.31
2016-10-20T11:30:28.850Z,46.12
2016-10-20T11:31:28.557Z,45.84
2016-10-20T11:32:28.895Z,46.03
2016-10-20T11:33:28.919Z,44.02
2016-10-20T11:34:28.624Z,44.88
2016-10-20T11:35:28.644Z,44.4
2016-10-20T11:36:28.661Z,45.26
2016-10-20T11:37:28.684Z,47.56
2016-10-20T11:38:28.703Z,47.37
2016-10-20T11:39:28.726Z,45.86
2016-10-20T11:40:29.109Z,45
2016-10-20T11:41:28.767Z,43.95
2016-10-20T11:42:28.809Z,43.95
2016-10-20T11:43:28.811Z,43.47
2016-10-20T11:44:28.845Z,44.23
2016-10-20T11:45:28.862Z,45.67
2016-10-20T11:46:28.873Z,46.34
2016-10-20T11:47:28.923Z,45.38
2016-10-20T11:48:28.919Z,45.09
2016-10-20T11:49:28.957Z,45.79
2016-10-20T11:50:29.274Z,44.35
2016-10-20T11:51:28.980Z,43.68
2016-10-20T11:52:29.003Z,42.82
2016-10-20T11:53:29.024Z,42.14
2016-10-20T11:54:29.054Z,41.96
2016-10-20T11:55:29.067Z,41.55
2016-10-20T11:56:29.404Z,41.46
2016-10-20T11:57:29.113Z,41.27
2016-10-20T11:58:29.448Z,41.74
2016-10-20T11:59:29.167Z,40.88
2016-10-20T12:00:29.498Z,41.17
2016-10-20T12:01:29.198Z,42.32
2016-10-20T12:02:29.536Z,41.07
2016-10-20T12:03:29.245Z,41.65
2016-10-20T12:04:29.580Z,41.84
2016-10-20T12:05:29.395Z,41.53
2016-10-20T12:06:29.307Z,41.46
2016-10-20T12:07:29.328Z,41.05
2016-10-20T12:08:29.668Z,42.11
2016-10-20T12:09:29.370Z,40.77
2016-10-20T12:10:29.714Z,41.82
2016-10-20T12:11:29.414Z,42.41
2016-10-20T12:12:29.771Z,42.6
2016-10-20T12:13:29.464Z,42.13
2016-10-20T12:14:29.478Z,41.84
2016-10-20T12:15:29.501Z,41.46
2016-10-20T12:16:29.523Z,40.12
2016-10-20T12:17:29.541Z,40.21
2016-10-20T12:18:29.561Z,41.55
2016-10-20T12:19:29.909Z,40.69
2016-10-20T12:20:29.612Z,39.92
2016-10-20T12:21:29.946Z,41.27
2016-10-20T12:22:29.650Z,40.41
2016-10-20T12:23:29.679Z,40.41
2016-10-20T12:24:29.696Z,41.72
2016-10-20T12:25:30.031Z,40.77
2016-10-20T12:26:30.058Z,42.58
2016-10-20T12:27:30.075Z,42.13
2016-10-20T12:28:29.803Z,42.41
2016-10-20T12:29:29.801Z,41.27
2016-10-20T12:30:29.824Z,41.27
2016-10-20T12:31:30.162Z,43.27
2016-10-20T12:32:30.180Z,42.24
2016-10-20T12:33:29.887Z,40.88
2016-10-20T12:34:30.227Z,42.05
2016-10-20T12:35:29.953Z,42.53
2016-10-20T12:36:30.312Z,41.57
2016-10-20T12:37:30.026Z,41.19
2016-10-20T12:38:30.444Z,40.81
2016-10-20T12:39:30.335Z,40.14
2016-10-20T12:40:30.375Z,40.71
2016-10-20T12:41:30.187Z,41.38
2016-10-20T12:42:30.170Z,41.48
2016-10-20T12:43:30.174Z,40.16
2016-10-20T12:44:30.444Z,40.42
2016-10-20T12:45:30.150Z,40.54
2016-10-20T12:46:30.489Z,40.83
2016-10-20T12:47:30.507Z,41.11
2016-10-20T12:48:30.532Z,39.97
2016-10-20T12:49:30.238Z,40.27
2016-10-20T12:50:30.579Z,41.33
2016-10-20T12:51:30.598Z,40.27
2016-10-20T12:52:30.307Z,37.01
2016-10-20T12:53:30.643Z,37.4
2016-10-20T12:54:30.350Z,38.74
2016-10-20T12:55:30.372Z,38.26